sensor_id;sensor_type;location;lat;lon;timestamp;P1;durP1;ratioP1;P2;durP2;ratioP2
59239;SDS011;45010;53.640;10.578;2023-06-04T00:01:04;2.47;;;0.80;;
59239;SDS011;45010;53.640;10.578;2023-06-04T00:04:05;4.20;;;0.88;;
59239;SDS011;45010;53.640;10.578;2023-06-04T00:07:05;1.95;;;0.75;;
59239;SDS011;45010;53.640;10.578;2023-06-04T00:10:06;1.13;;;0.75;;
59239;SDS011;45010;53.640;10.578;2023-06-04T00:13:06;2.20;;;0.70;;
59239;SDS011;45010;53.640;10.578;2023-06-04T00:16:07;2.53;;;0.90;;
59239;SDS011;45010;53.640;10.578;2023-06-04T00:19:08;1.30;;;0.80;;
59239;SDS011;45010;53.640;10.578;2023-06-04T00:22:08;1.10;;;0.63;;
59239;SDS011;45010;53.640;10.578;2023-06-04T00:25:09;1.30;;;0.77;;
59239;SDS011;45010;53.640;10.578;2023-06-04T00:28:10;2.65;;;0.70;;
59239;SDS011;45010;53.640;10.578;2023-06-04T00:31:10;1.33;;;0.70;;
59239;SDS011;45010;53.640;10.578;2023-06-04T00:34:12;1.45;;;0.70;;
59239;SDS011;45010;53.640;10.578;2023-06-04T00:37:12;1.27;;;0.63;;
59239;SDS011;45010;53.640;10.578;2023-06-04T00:40:13;0.80;;;0.50;;
59239;SDS011;45010;53.640;10.578;2023-06-04T00:43:13;3.53;;;1.02;;
59239;SDS011;45010;53.640;10.578;2023-06-04T00:46:13;2.42;;;0.65;;
59239;SDS011;45010;53.640;10.578;2023-06-04T00:49:18;1.35;;;0.55;;
59239;SDS011;45010;53.640;10.578;2023-06-04T00:52:18;1.35;;;0.52;;
59239;SDS011;45010;53.640;10.578;2023-06-04T00:55:18;1.95;;;0.60;;
59239;SDS011;45010;53.640;10.578;2023-06-04T00:58:19;0.88;;;0.50;;
59239;SDS011;45010;53.640;10.578;2023-06-04T01:04:59;1.35;;;0.57;;
59239;SDS011;45010;53.640;10.578;2023-06-04T01:08:10;1.17;;;0.80;;
59239;SDS011;45010;53.640;10.578;2023-06-04T01:11:11;0.82;;;0.60;;
59239;SDS011;45010;53.640;10.578;2023-06-04T01:14:11;1.38;;;0.68;;
59239;SDS011;45010;53.640;10.578;2023-06-04T01:20:43;1.15;;;0.68;;
59239;SDS011;45010;53.640;10.578;2023-06-04T01:23:47;0.90;;;0.50;;
59239;SDS011;45010;53.640;10.578;2023-06-04T01:26:58;1.33;;;0.50;;
59239;SDS011;45010;53.640;10.578;2023-06-04T01:29:58;0.77;;;0.50;;
59239;SDS011;45010;53.640;10.578;2023-06-04T01:33:01;0.65;;;0.50;;
59239;SDS011;45010;53.640;10.578;2023-06-04T01:36:02;1.00;;;0.60;;
59239;SDS011;45010;53.640;10.578;2023-06-04T01:39:03;0.93;;;0.63;;
59239;SDS011;45010;53.640;10.578;2023-06-04T01:42:03;0.95;;;0.60;;
59239;SDS011;45010;53.640;10.578;2023-06-04T01:45:04;1.38;;;0.60;;
59239;SDS011;45010;53.640;10.578;2023-06-04T01:48:05;0.85;;;0.60;;
59239;SDS011;45010;53.640;10.578;2023-06-04T01:51:06;1.08;;;0.90;;
59239;SDS011;45010;53.640;10.578;2023-06-04T01:54:06;0.70;;;0.60;;
59239;SDS011;45010;53.640;10.578;2023-06-04T01:57:06;0.52;;;0.52;;
59239;SDS011;45010;53.640;10.578;2023-06-04T02:00:08;1.00;;;0.60;;
59239;SDS011;45010;53.640;10.578;2023-06-04T02:03:10;0.75;;;0.52;;
59239;SDS011;45010;53.640;10.578;2023-06-04T02:06:12;2.28;;;0.52;;
59239;SDS011;45010;53.640;10.578;2023-06-04T02:09:12;0.60;;;0.60;;
59239;SDS011;45010;53.640;10.578;2023-06-04T02:12:13;1.00;;;0.55;;
59239;SDS011;45010;53.640;10.578;2023-06-04T02:15:14;1.00;;;0.70;;
59239;SDS011;45010;53.640;10.578;2023-06-04T02:18:15;0.60;;;0.57;;
59239;SDS011;45010;53.640;10.578;2023-06-04T02:21:18;0.85;;;0.50;;
59239;SDS011;45010;53.640;10.578;2023-06-04T02:24:18;0.60;;;0.52;;
59239;SDS011;45010;53.640;10.578;2023-06-04T02:27:18;1.20;;;0.80;;
59239;SDS011;45010;53.640;10.578;2023-06-04T02:30:18;1.10;;;0.50;;
59239;SDS011;45010;53.640;10.578;2023-06-04T02:33:19;0.85;;;0.70;;
59239;SDS011;45010;53.640;10.578;2023-06-04T02:36:20;2.17;;;1.30;;
59239;SDS011;45010;53.640;10.578;2023-06-04T02:39:21;1.40;;;0.70;;
59239;SDS011;45010;53.640;10.578;2023-06-04T02:42:21;0.95;;;0.68;;
59239;SDS011;45010;53.640;10.578;2023-06-04T02:45:22;0.80;;;0.50;;
59239;SDS011;45010;53.640;10.578;2023-06-04T02:48:23;0.68;;;0.50;;
59239;SDS011;45010;53.640;10.578;2023-06-04T02:51:23;0.73;;;0.50;;
59239;SDS011;45010;53.640;10.578;2023-06-04T02:54:23;0.45;;;0.45;;
59239;SDS011;45010;53.640;10.578;2023-06-04T02:57:24;1.00;;;0.60;;
59239;SDS011;45010;53.640;10.578;2023-06-04T03:00:24;1.02;;;0.60;;
59239;SDS011;45010;53.640;10.578;2023-06-04T03:03:25;0.70;;;0.60;;
59239;SDS011;45010;53.640;10.578;2023-06-04T03:06:26;0.60;;;0.50;;
59239;SDS011;45010;53.640;10.578;2023-06-04T03:09:27;0.63;;;0.63;;
59239;SDS011;45010;53.640;10.578;2023-06-04T03:12:27;0.47;;;0.40;;
59239;SDS011;45010;53.640;10.578;2023-06-04T03:15:27;0.73;;;0.52;;
59239;SDS011;45010;53.640;10.578;2023-06-04T03:18:28;1.10;;;0.75;;
59239;SDS011;45010;53.640;10.578;2023-06-04T03:21:28;0.57;;;0.40;;
59239;SDS011;45010;53.640;10.578;2023-06-04T03:24:29;0.60;;;0.50;;
59239;SDS011;45010;53.640;10.578;2023-06-04T03:27:30;2.00;;;0.52;;
59239;SDS011;45010;53.640;10.578;2023-06-04T03:30:32;1.10;;;0.60;;
59239;SDS011;45010;53.640;10.578;2023-06-04T03:33:32;0.50;;;0.50;;
59239;SDS011;45010;53.640;10.578;2023-06-04T03:36:32;0.65;;;0.45;;
59239;SDS011;45010;53.640;10.578;2023-06-04T03:39:38;1.17;;;0.50;;
59239;SDS011;45010;53.640;10.578;2023-06-04T03:42:38;0.82;;;0.70;;
59239;SDS011;45010;53.640;10.578;2023-06-04T03:45:38;0.47;;;0.45;;
59239;SDS011;45010;53.640;10.578;2023-06-04T03:48:40;0.50;;;0.50;;
59239;SDS011;45010;53.640;10.578;2023-06-04T03:51:41;1.02;;;0.55;;
59239;SDS011;45010;53.640;10.578;2023-06-04T03:54:41;0.93;;;0.55;;
59239;SDS011;45010;53.640;10.578;2023-06-04T03:57:42;0.50;;;0.50;;
59239;SDS011;45010;53.640;10.578;2023-06-04T04:00:42;1.10;;;0.50;;
59239;SDS011;45010;53.640;10.578;2023-06-04T04:03:43;1.20;;;0.70;;
59239;SDS011;45010;53.640;10.578;2023-06-04T04:06:43;0.45;;;0.45;;
59239;SDS011;45010;53.640;10.578;2023-06-04T04:09:43;0.90;;;0.65;;
59239;SDS011;45010;53.640;10.578;2023-06-04T04:12:44;0.70;;;0.55;;
59239;SDS011;45010;53.640;10.578;2023-06-04T04:15:45;0.75;;;0.70;;
59239;SDS011;45010;53.640;10.578;2023-06-04T04:18:45;0.55;;;0.40;;
59239;SDS011;45010;53.640;10.578;2023-06-04T04:21:46;0.80;;;0.45;;
59239;SDS011;45010;53.640;10.578;2023-06-04T04:24:49;0.65;;;0.52;;
59239;SDS011;45010;53.640;10.578;2023-06-04T04:27:50;0.50;;;0.50;;
59239;SDS011;45010;53.640;10.578;2023-06-04T04:30:50;0.60;;;0.50;;
59239;SDS011;45010;53.640;10.578;2023-06-04T04:33:50;0.77;;;0.50;;
59239;SDS011;45010;53.640;10.578;2023-06-04T04:36:51;0.50;;;0.40;;
59239;SDS011;45010;53.640;10.578;2023-06-04T04:39:56;1.42;;;0.60;;
59239;SDS011;45010;53.640;10.578;2023-06-04T04:42:57;0.63;;;0.60;;
59239;SDS011;45010;53.640;10.578;2023-06-04T04:45:58;0.70;;;0.50;;
59239;SDS011;45010;53.640;10.578;2023-06-04T04:48:58;1.45;;;0.80;;
59239;SDS011;45010;53.640;10.578;2023-06-04T04:51:58;0.63;;;0.50;;
59239;SDS011;45010;53.640;10.578;2023-06-04T04:54:59;0.50;;;0.50;;
59239;SDS011;45010;53.640;10.578;2023-06-04T04:57:59;0.57;;;0.57;;
59239;SDS011;45010;53.640;10.578;2023-06-04T05:00:59;1.05;;;0.52;;
59239;SDS011;45010;53.640;10.578;2023-06-04T05:04:00;0.50;;;0.40;;
59239;SDS011;45010;53.640;10.578;2023-06-04T05:07:00;1.23;;;0.40;;
59239;SDS011;45010;53.640;10.578;2023-06-04T05:10:00;1.02;;;0.60;;
59239;SDS011;45010;53.640;10.578;2023-06-04T05:13:01;1.70;;;0.60;;
59239;SDS011;45010;53.640;10.578;2023-06-04T05:16:01;1.25;;;0.60;;
59239;SDS011;45010;53.640;10.578;2023-06-04T05:19:06;0.73;;;0.50;;
59239;SDS011;45010;53.640;10.578;2023-06-04T05:22:06;1.17;;;0.70;;
59239;SDS011;45010;53.640;10.578;2023-06-04T05:25:08;1.00;;;0.60;;
59239;SDS011;45010;53.640;10.578;2023-06-04T05:28:09;1.40;;;0.68;;
59239;SDS011;45010;53.640;10.578;2023-06-04T05:31:10;1.67;;;0.70;;
59239;SDS011;45010;53.640;10.578;2023-06-04T05:34:13;0.80;;;0.60;;
59239;SDS011;45010;53.640;10.578;2023-06-04T05:37:16;0.50;;;0.45;;
59239;SDS011;45010;53.640;10.578;2023-06-04T05:40:16;0.95;;;0.50;;
59239;SDS011;45010;53.640;10.578;2023-06-04T05:43:17;1.27;;;0.55;;
59239;SDS011;45010;53.640;10.578;2023-06-04T05:46:17;1.05;;;0.40;;
59239;SDS011;45010;53.640;10.578;2023-06-04T05:49:17;2.85;;;0.70;;
59239;SDS011;45010;53.640;10.578;2023-06-04T05:52:19;3.08;;;0.50;;
59239;SDS011;45010;53.640;10.578;2023-06-04T05:55:20;1.67;;;0.73;;
59239;SDS011;45010;53.640;10.578;2023-06-04T05:58:21;2.40;;;0.60;;
59239;SDS011;45010;53.640;10.578;2023-06-04T06:01:21;3.25;;;0.80;;
59239;SDS011;45010;53.640;10.578;2023-06-04T06:04:21;1.45;;;0.52;;
59239;SDS011;45010;53.640;10.578;2023-06-04T06:07:22;2.05;;;0.70;;
59239;SDS011;45010;53.640;10.578;2023-06-04T06:10:22;1.02;;;0.57;;
59239;SDS011;45010;53.640;10.578;2023-06-04T06:13:23;1.13;;;0.60;;
59239;SDS011;45010;53.640;10.578;2023-06-04T06:16:23;2.45;;;0.70;;
59239;SDS011;45010;53.640;10.578;2023-06-04T06:19:24;1.42;;;0.52;;
59239;SDS011;45010;53.640;10.578;2023-06-04T06:22:25;1.23;;;0.50;;
59239;SDS011;45010;53.640;10.578;2023-06-04T06:25:25;1.35;;;0.50;;
59239;SDS011;45010;53.640;10.578;2023-06-04T06:28:25;2.85;;;0.75;;
59239;SDS011;45010;53.640;10.578;2023-06-04T06:31:27;1.02;;;0.60;;
59239;SDS011;45010;53.640;10.578;2023-06-04T06:34:27;2.05;;;0.80;;
59239;SDS011;45010;53.640;10.578;2023-06-04T06:37:28;4.82;;;0.90;;
59239;SDS011;45010;53.640;10.578;2023-06-04T06:40:28;2.10;;;0.60;;
59239;SDS011;45010;53.640;10.578;2023-06-04T06:43:30;2.95;;;0.75;;
59239;SDS011;45010;53.640;10.578;2023-06-04T06:46:31;3.88;;;0.80;;
59239;SDS011;45010;53.640;10.578;2023-06-04T06:49:32;5.38;;;0.85;;
59239;SDS011;45010;53.640;10.578;2023-06-04T06:52:32;4.45;;;0.90;;
59239;SDS011;45010;53.640;10.578;2023-06-04T06:55:32;5.20;;;1.50;;
59239;SDS011;45010;53.640;10.578;2023-06-04T06:58:33;6.40;;;2.45;;
59239;SDS011;45010;53.640;10.578;2023-06-04T07:01:33;14.25;;;5.50;;
59239;SDS011;45010;53.640;10.578;2023-06-04T07:04:33;14.50;;;5.13;;
59239;SDS011;45010;53.640;10.578;2023-06-04T07:07:35;9.93;;;3.20;;
59239;SDS011;45010;53.640;10.578;2023-06-04T07:10:36;11.25;;;2.83;;
59239;SDS011;45010;53.640;10.578;2023-06-04T07:13:38;7.20;;;2.67;;
59239;SDS011;45010;53.640;10.578;2023-06-04T07:16:38;8.48;;;2.33;;
59239;SDS011;45010;53.640;10.578;2023-06-04T07:19:39;8.80;;;2.47;;
59239;SDS011;45010;53.640;10.578;2023-06-04T07:22:39;8.55;;;2.30;;
59239;SDS011;45010;53.640;10.578;2023-06-04T07:25:39;10.60;;;2.65;;
59239;SDS011;45010;53.640;10.578;2023-06-04T07:28:40;3.08;;;1.63;;
59239;SDS011;45010;53.640;10.578;2023-06-04T07:31:41;7.25;;;2.35;;
59239;SDS011;45010;53.640;10.578;2023-06-04T07:34:41;5.05;;;2.22;;
59239;SDS011;45010;53.640;10.578;2023-06-04T07:37:42;6.47;;;2.00;;
59239;SDS011;45010;53.640;10.578;2023-06-04T07:40:45;5.95;;;1.70;;
59239;SDS011;45010;53.640;10.578;2023-06-04T07:43:46;4.45;;;2.13;;
59239;SDS011;45010;53.640;10.578;2023-06-04T07:46:46;5.57;;;1.80;;
59239;SDS011;45010;53.640;10.578;2023-06-04T07:49:46;6.05;;;1.95;;
59239;SDS011;45010;53.640;10.578;2023-06-04T07:52:46;6.80;;;1.88;;
59239;SDS011;45010;53.640;10.578;2023-06-04T07:55:47;5.25;;;1.77;;
59239;SDS011;45010;53.640;10.578;2023-06-04T07:58:47;7.80;;;1.90;;
59239;SDS011;45010;53.640;10.578;2023-06-04T08:01:49;4.07;;;1.50;;
59239;SDS011;45010;53.640;10.578;2023-06-04T08:04:50;4.90;;;1.73;;
59239;SDS011;45010;53.640;10.578;2023-06-04T08:07:50;6.05;;;2.03;;
59239;SDS011;45010;53.640;10.578;2023-06-04T08:10:51;6.10;;;1.73;;
59239;SDS011;45010;53.640;10.578;2023-06-04T08:13:51;4.22;;;1.50;;
59239;SDS011;45010;53.640;10.578;2023-06-04T08:16:52;6.53;;;1.40;;
59239;SDS011;45010;53.640;10.578;2023-06-04T08:19:52;2.38;;;1.58;;
59239;SDS011;45010;53.640;10.578;2023-06-04T08:22:53;2.70;;;1.65;;
59239;SDS011;45010;53.640;10.578;2023-06-04T08:25:53;9.65;;;1.80;;
59239;SDS011;45010;53.640;10.578;2023-06-04T08:28:54;4.60;;;1.50;;
59239;SDS011;45010;53.640;10.578;2023-06-04T08:31:55;5.15;;;1.50;;
59239;SDS011;45010;53.640;10.578;2023-06-04T08:34:55;6.90;;;1.73;;
59239;SDS011;45010;53.640;10.578;2023-06-04T08:37:56;5.90;;;1.60;;
59239;SDS011;45010;53.640;10.578;2023-06-04T08:40:57;4.70;;;1.30;;
59239;SDS011;45010;53.640;10.578;2023-06-04T08:44:02;6.30;;;1.30;;
59239;SDS011;45010;53.640;10.578;2023-06-04T08:47:06;5.30;;;1.48;;
59239;SDS011;45010;53.640;10.578;2023-06-04T08:50:08;7.18;;;1.58;;
59239;SDS011;45010;53.640;10.578;2023-06-04T08:53:10;4.45;;;1.30;;
59239;SDS011;45010;53.640;10.578;2023-06-04T08:56:13;6.38;;;1.55;;
59239;SDS011;45010;53.640;10.578;2023-06-04T08:59:14;5.30;;;1.35;;
59239;SDS011;45010;53.640;10.578;2023-06-04T09:02:15;3.05;;;1.40;;
59239;SDS011;45010;53.640;10.578;2023-06-04T09:05:17;3.50;;;1.60;;
59239;SDS011;45010;53.640;10.578;2023-06-04T09:08:20;5.07;;;1.40;;
59239;SDS011;45010;53.640;10.578;2023-06-04T09:11:22;9.95;;;1.75;;
59239;SDS011;45010;53.640;10.578;2023-06-04T09:14:26;6.13;;;1.55;;
59239;SDS011;45010;53.640;10.578;2023-06-04T09:17:26;7.82;;;1.88;;
59239;SDS011;45010;53.640;10.578;2023-06-04T09:20:28;4.00;;;1.33;;
59239;SDS011;45010;53.640;10.578;2023-06-04T09:23:28;3.92;;;1.30;;
59239;SDS011;45010;53.640;10.578;2023-06-04T09:26:29;2.33;;;1.27;;
59239;SDS011;45010;53.640;10.578;2023-06-04T09:29:29;4.22;;;1.42;;
59239;SDS011;45010;53.640;10.578;2023-06-04T09:32:29;6.80;;;1.58;;
59239;SDS011;45010;53.640;10.578;2023-06-04T09:35:30;3.10;;;1.48;;
59239;SDS011;45010;53.640;10.578;2023-06-04T09:38:37;3.80;;;1.30;;
59239;SDS011;45010;53.640;10.578;2023-06-04T09:41:38;2.80;;;1.23;;
59239;SDS011;45010;53.640;10.578;2023-06-04T09:44:44;2.20;;;1.00;;
59239;SDS011;45010;53.640;10.578;2023-06-04T09:47:45;3.70;;;1.50;;
59239;SDS011;45010;53.640;10.578;2023-06-04T09:50:46;4.78;;;1.40;;
59239;SDS011;45010;53.640;10.578;2023-06-04T09:53:53;2.75;;;1.10;;
59239;SDS011;45010;53.640;10.578;2023-06-04T09:56:55;4.38;;;1.25;;
59239;SDS011;45010;53.640;10.578;2023-06-04T09:59:56;3.53;;;1.52;;
59239;SDS011;45010;53.640;10.578;2023-06-04T10:02:57;2.53;;;1.10;;
59239;SDS011;45010;53.640;10.578;2023-06-04T10:06:02;4.82;;;1.00;;
59239;SDS011;45010;53.640;10.578;2023-06-04T10:09:04;4.15;;;1.23;;
59239;SDS011;45010;53.640;10.578;2023-06-04T10:12:06;5.88;;;1.50;;
59239;SDS011;45010;53.640;10.578;2023-06-04T10:15:07;2.67;;;1.30;;
59239;SDS011;45010;53.640;10.578;2023-06-04T10:18:12;2.40;;;0.90;;
59239;SDS011;45010;53.640;10.578;2023-06-04T10:21:13;10.65;;;1.40;;
59239;SDS011;45010;53.640;10.578;2023-06-04T10:24:14;3.03;;;1.33;;
59239;SDS011;45010;53.640;10.578;2023-06-04T10:27:19;4.63;;;1.10;;
59239;SDS011;45010;53.640;10.578;2023-06-04T10:30:20;2.58;;;1.10;;
59239;SDS011;45010;53.640;10.578;2023-06-04T10:33:20;1.77;;;1.02;;
59239;SDS011;45010;53.640;10.578;2023-06-04T10:36:24;4.65;;;1.23;;
59239;SDS011;45010;53.640;10.578;2023-06-04T10:39:28;1.88;;;1.00;;
59239;SDS011;45010;53.640;10.578;2023-06-04T10:42:39;3.63;;;1.30;;
59239;SDS011;45010;53.640;10.578;2023-06-04T10:45:40;4.72;;;1.25;;
59239;SDS011;45010;53.640;10.578;2023-06-04T10:48:47;6.22;;;1.08;;
59239;SDS011;45010;53.640;10.578;2023-06-04T10:51:52;4.68;;;1.23;;
59239;SDS011;45010;53.640;10.578;2023-06-04T10:55:02;2.10;;;1.30;;
59239;SDS011;45010;53.640;10.578;2023-06-04T10:58:03;2.33;;;1.02;;
59239;SDS011;45010;53.640;10.578;2023-06-04T11:01:04;2.00;;;1.10;;
59239;SDS011;45010;53.640;10.578;2023-06-04T11:04:05;4.18;;;1.20;;
59239;SDS011;45010;53.640;10.578;2023-06-04T11:07:06;4.35;;;1.13;;
59239;SDS011;45010;53.640;10.578;2023-06-04T11:10:11;2.60;;;1.02;;
59239;SDS011;45010;53.640;10.578;2023-06-04T11:13:12;4.03;;;1.17;;
59239;SDS011;45010;53.640;10.578;2023-06-04T11:16:19;1.67;;;0.95;;
59239;SDS011;45010;53.640;10.578;2023-06-04T11:19:20;4.18;;;1.08;;
59239;SDS011;45010;53.640;10.578;2023-06-04T11:22:21;5.18;;;1.52;;
59239;SDS011;45010;53.640;10.578;2023-06-04T11:25:22;8.60;;;1.98;;
59239;SDS011;45010;53.640;10.578;2023-06-04T11:28:23;7.82;;;1.50;;
59239;SDS011;45010;53.640;10.578;2023-06-04T11:31:24;3.35;;;1.23;;
59239;SDS011;45010;53.640;10.578;2023-06-04T11:34:25;3.75;;;1.20;;
59239;SDS011;45010;53.640;10.578;2023-06-04T11:37:25;6.32;;;1.27;;
59239;SDS011;45010;53.640;10.578;2023-06-04T11:40:30;3.92;;;1.20;;
59239;SDS011;45010;53.640;10.578;2023-06-04T11:43:31;3.63;;;1.35;;
59239;SDS011;45010;53.640;10.578;2023-06-04T11:46:33;5.82;;;1.50;;
59239;SDS011;45010;53.640;10.578;2023-06-04T11:49:34;4.65;;;1.42;;
59239;SDS011;45010;53.640;10.578;2023-06-04T11:52:36;4.75;;;1.42;;
59239;SDS011;45010;53.640;10.578;2023-06-04T11:55:37;5.28;;;1.40;;
59239;SDS011;45010;53.640;10.578;2023-06-04T11:58:39;7.03;;;1.52;;
59239;SDS011;45010;53.640;10.578;2023-06-04T12:01:40;5.32;;;1.20;;
59239;SDS011;45010;53.640;10.578;2023-06-04T12:04:45;5.00;;;1.23;;
59239;SDS011;45010;53.640;10.578;2023-06-04T12:07:46;5.15;;;1.38;;
59239;SDS011;45010;53.640;10.578;2023-06-04T12:10:50;2.08;;;1.13;;
59239;SDS011;45010;53.640;10.578;2023-06-04T12:13:51;2.38;;;1.08;;
59239;SDS011;45010;53.640;10.578;2023-06-04T12:16:55;4.97;;;1.40;;
59239;SDS011;45010;53.640;10.578;2023-06-04T12:19:55;5.28;;;1.15;;
59239;SDS011;45010;53.640;10.578;2023-06-04T12:22:58;2.92;;;1.25;;
59239;SDS011;45010;53.640;10.578;2023-06-04T12:25:58;4.88;;;1.30;;
59239;SDS011;45010;53.640;10.578;2023-06-04T12:29:02;3.75;;;1.17;;
59239;SDS011;45010;53.640;10.578;2023-06-04T12:32:08;6.43;;;1.40;;
59239;SDS011;45010;53.640;10.578;2023-06-04T12:35:11;3.72;;;1.02;;
59239;SDS011;45010;53.640;10.578;2023-06-04T12:38:11;4.10;;;1.20;;
59239;SDS011;45010;53.640;10.578;2023-06-04T12:41:12;2.35;;;1.23;;
59239;SDS011;45010;53.640;10.578;2023-06-04T12:44:12;3.47;;;1.30;;
59239;SDS011;45010;53.640;10.578;2023-06-04T12:47:12;3.55;;;0.90;;
59239;SDS011;45010;53.640;10.578;2023-06-04T12:50:13;2.95;;;0.88;;
59239;SDS011;45010;53.640;10.578;2023-06-04T12:53:13;1.55;;;0.80;;
59239;SDS011;45010;53.640;10.578;2023-06-04T12:56:13;1.65;;;1.02;;
59239;SDS011;45010;53.640;10.578;2023-06-04T12:59:14;2.97;;;1.10;;
59239;SDS011;45010;53.640;10.578;2023-06-04T13:02:14;1.65;;;0.90;;
59239;SDS011;45010;53.640;10.578;2023-06-04T13:05:15;3.70;;;1.00;;
59239;SDS011;45010;53.640;10.578;2023-06-04T13:08:15;2.47;;;1.10;;
59239;SDS011;45010;53.640;10.578;2023-06-04T13:11:16;6.18;;;1.15;;
59239;SDS011;45010;53.640;10.578;2023-06-04T13:14:17;2.85;;;1.00;;
59239;SDS011;45010;53.640;10.578;2023-06-04T13:17:17;3.97;;;0.93;;
59239;SDS011;45010;53.640;10.578;2023-06-04T13:20:18;3.00;;;0.90;;
59239;SDS011;45010;53.640;10.578;2023-06-04T13:23:18;1.70;;;0.80;;
59239;SDS011;45010;53.640;10.578;2023-06-04T13:26:18;2.05;;;1.00;;
59239;SDS011;45010;53.640;10.578;2023-06-04T13:29:19;2.08;;;0.80;;
59239;SDS011;45010;53.640;10.578;2023-06-04T13:32:22;2.50;;;1.35;;
59239;SDS011;45010;53.640;10.578;2023-06-04T13:35:22;2.10;;;0.90;;
59239;SDS011;45010;53.640;10.578;2023-06-04T13:38:22;1.92;;;1.08;;
59239;SDS011;45010;53.640;10.578;2023-06-04T13:41:23;3.05;;;1.05;;
59239;SDS011;45010;53.640;10.578;2023-06-04T13:44:23;2.90;;;1.00;;
59239;SDS011;45010;53.640;10.578;2023-06-04T13:47:26;4.15;;;1.05;;
59239;SDS011;45010;53.640;10.578;2023-06-04T13:50:26;2.75;;;1.00;;
59239;SDS011;45010;53.640;10.578;2023-06-04T13:53:27;2.55;;;1.30;;
59239;SDS011;45010;53.640;10.578;2023-06-04T13:56:27;6.18;;;1.27;;
59239;SDS011;45010;53.640;10.578;2023-06-04T13:59:27;2.97;;;1.23;;
59239;SDS011;45010;53.640;10.578;2023-06-04T14:02:28;3.47;;;1.00;;
59239;SDS011;45010;53.640;10.578;2023-06-04T14:05:28;4.88;;;0.93;;
59239;SDS011;45010;53.640;10.578;2023-06-04T14:08:28;4.25;;;1.20;;
59239;SDS011;45010;53.640;10.578;2023-06-04T14:11:29;3.55;;;0.93;;
59239;SDS011;45010;53.640;10.578;2023-06-04T14:14:29;4.18;;;1.10;;
59239;SDS011;45010;53.640;10.578;2023-06-04T14:17:36;3.40;;;1.23;;
59239;SDS011;45010;53.640;10.578;2023-06-04T14:20:36;8.80;;;1.08;;
59239;SDS011;45010;53.640;10.578;2023-06-04T14:23:37;5.05;;;1.10;;
59239;SDS011;45010;53.640;10.578;2023-06-04T14:26:37;2.42;;;1.30;;
59239;SDS011;45010;53.640;10.578;2023-06-04T14:29:37;4.53;;;1.10;;
59239;SDS011;45010;53.640;10.578;2023-06-04T14:32:38;3.10;;;1.05;;
59239;SDS011;45010;53.640;10.578;2023-06-04T14:35:40;3.42;;;1.02;;
59239;SDS011;45010;53.640;10.578;2023-06-04T14:38:45;3.17;;;1.15;;
59239;SDS011;45010;53.640;10.578;2023-06-04T14:41:46;2.70;;;1.50;;
59239;SDS011;45010;53.640;10.578;2023-06-04T14:44:46;5.72;;;1.10;;
59239;SDS011;45010;53.640;10.578;2023-06-04T14:47:47;7.65;;;1.30;;
59239;SDS011;45010;53.640;10.578;2023-06-04T14:50:47;2.85;;;1.10;;
59239;SDS011;45010;53.640;10.578;2023-06-04T14:53:48;4.00;;;1.60;;
59239;SDS011;45010;53.640;10.578;2023-06-04T14:56:48;2.75;;;1.40;;
59239;SDS011;45010;53.640;10.578;2023-06-04T14:59:48;3.20;;;1.05;;
59239;SDS011;45010;53.640;10.578;2023-06-04T15:02:49;3.53;;;1.10;;
59239;SDS011;45010;53.640;10.578;2023-06-04T15:05:49;3.88;;;1.10;;
59239;SDS011;45010;53.640;10.578;2023-06-04T15:08:49;2.30;;;0.98;;
59239;SDS011;45010;53.640;10.578;2023-06-04T15:11:50;2.38;;;1.00;;
59239;SDS011;45010;53.640;10.578;2023-06-04T15:14:50;2.30;;;1.08;;
59239;SDS011;45010;53.640;10.578;2023-06-04T15:17:51;2.30;;;1.23;;
59239;SDS011;45010;53.640;10.578;2023-06-04T15:20:52;2.83;;;1.33;;
59239;SDS011;45010;53.640;10.578;2023-06-04T15:23:52;3.28;;;1.13;;
59239;SDS011;45010;53.640;10.578;2023-06-04T15:26:52;2.78;;;1.17;;
59239;SDS011;45010;53.640;10.578;2023-06-04T15:29:53;2.50;;;1.13;;
59239;SDS011;45010;53.640;10.578;2023-06-04T15:32:53;3.88;;;1.15;;
59239;SDS011;45010;53.640;10.578;2023-06-04T15:35:54;2.03;;;1.10;;
59239;SDS011;45010;53.640;10.578;2023-06-04T15:38:54;1.63;;;0.95;;
59239;SDS011;45010;53.640;10.578;2023-06-04T15:41:54;1.95;;;1.02;;
59239;SDS011;45010;53.640;10.578;2023-06-04T15:44:55;1.55;;;0.98;;
59239;SDS011;45010;53.640;10.578;2023-06-04T15:47:55;1.60;;;1.00;;
59239;SDS011;45010;53.640;10.578;2023-06-04T15:50:55;3.33;;;1.10;;
59239;SDS011;45010;53.640;10.578;2023-06-04T15:53:56;4.13;;;1.27;;
59239;SDS011;45010;53.640;10.578;2023-06-04T15:56:56;2.80;;;1.20;;
59239;SDS011;45010;53.640;10.578;2023-06-04T15:59:56;2.83;;;1.17;;
59239;SDS011;45010;53.640;10.578;2023-06-04T16:02:57;3.80;;;1.05;;
59239;SDS011;45010;53.640;10.578;2023-06-04T16:05:57;4.35;;;1.40;;
59239;SDS011;45010;53.640;10.578;2023-06-04T16:08:57;4.38;;;1.20;;
59239;SDS011;45010;53.640;10.578;2023-06-04T16:11:58;2.70;;;1.20;;
59239;SDS011;45010;53.640;10.578;2023-06-04T16:14:58;4.90;;;1.10;;
59239;SDS011;45010;53.640;10.578;2023-06-04T16:17:58;6.90;;;1.42;;
59239;SDS011;45010;53.640;10.578;2023-06-04T16:20:59;2.28;;;1.00;;
59239;SDS011;45010;53.640;10.578;2023-06-04T16:24:00;4.28;;;1.00;;
59239;SDS011;45010;53.640;10.578;2023-06-04T16:27:00;3.22;;;0.93;;
59239;SDS011;45010;53.640;10.578;2023-06-04T16:30:02;2.65;;;1.00;;
59239;SDS011;45010;53.640;10.578;2023-06-04T16:33:05;4.90;;;1.00;;
59239;SDS011;45010;53.640;10.578;2023-06-04T16:36:06;2.58;;;1.00;;
59239;SDS011;45010;53.640;10.578;2023-06-04T16:39:06;1.98;;;1.00;;
59239;SDS011;45010;53.640;10.578;2023-06-04T16:42:07;2.63;;;1.02;;
59239;SDS011;45010;53.640;10.578;2023-06-04T16:45:08;3.45;;;1.02;;
59239;SDS011;45010;53.640;10.578;2023-06-04T16:48:09;2.35;;;1.33;;
59239;SDS011;45010;53.640;10.578;2023-06-04T16:51:09;4.30;;;1.00;;
59239;SDS011;45010;53.640;10.578;2023-06-04T16:54:10;2.13;;;1.02;;
59239;SDS011;45010;53.640;10.578;2023-06-04T16:57:11;4.50;;;1.13;;
59239;SDS011;45010;53.640;10.578;2023-06-04T17:00:11;2.03;;;0.90;;
59239;SDS011;45010;53.640;10.578;2023-06-04T17:03:12;2.33;;;1.08;;
59239;SDS011;45010;53.640;10.578;2023-06-04T17:06:12;2.08;;;0.90;;
59239;SDS011;45010;53.640;10.578;2023-06-04T17:09:13;1.65;;;0.98;;
59239;SDS011;45010;53.640;10.578;2023-06-04T17:12:13;2.03;;;1.10;;
59239;SDS011;45010;53.640;10.578;2023-06-04T17:15:13;1.65;;;0.90;;
59239;SDS011;45010;53.640;10.578;2023-06-04T17:18:14;2.00;;;0.90;;
59239;SDS011;45010;53.640;10.578;2023-06-04T17:21:14;2.05;;;0.90;;
59239;SDS011;45010;53.640;10.578;2023-06-04T17:24:16;1.42;;;0.80;;
59239;SDS011;45010;53.640;10.578;2023-06-04T17:27:17;1.55;;;0.70;;
59239;SDS011;45010;53.640;10.578;2023-06-04T17:30:18;3.50;;;0.90;;
59239;SDS011;45010;53.640;10.578;2023-06-04T17:33:24;1.80;;;1.13;;
59239;SDS011;45010;53.640;10.578;2023-06-04T17:36:24;2.55;;;1.00;;
59239;SDS011;45010;53.640;10.578;2023-06-04T17:39:25;1.70;;;0.82;;
59239;SDS011;45010;53.640;10.578;2023-06-04T17:42:25;1.85;;;0.77;;
59239;SDS011;45010;53.640;10.578;2023-06-04T17:45:25;1.63;;;0.90;;
59239;SDS011;45010;53.640;10.578;2023-06-04T17:48:26;2.65;;;0.88;;
59239;SDS011;45010;53.640;10.578;2023-06-04T17:51:26;1.67;;;0.90;;
59239;SDS011;45010;53.640;10.578;2023-06-04T17:54:26;1.08;;;0.80;;
59239;SDS011;45010;53.640;10.578;2023-06-04T17:57:28;2.22;;;0.80;;
59239;SDS011;45010;53.640;10.578;2023-06-04T18:00:28;1.65;;;0.85;;